Superior, Wyoming
Current Conditions -  °F | °C
As of 10:54 AM on Wednesday 28 Jan 2015 (Local Time) from KRKS Reporting Station
Few Clouds Few Clouds  
Wind Chill: 27°   Ceiling: Unl
Heat Index: 38°   Visibility: 10mi
Dew Point: 30°   Wind: 24mph
Humidity: 73%   Direction: 250°WSW
Pressure: 30.22"   Gusts: NA
Location:  41.77°N, 108.98°W
Report Text: KRKS 281754Z AUTO 25021KT 10SM FEW050 03/M01 A3022 RMK AO2 PK WND 25027/1747 SLP228 T00331011 10033 20000 52005
Loading
Personal Weather Stations






























Interactive Weather Map New forecast layout! Learn more

10-Day Weather Forecast

Advertisements
Track Severe Weather on mobile